Time;durP1;ratioP1;P1;durP2;ratioP2;P2;SDS_P1;SDS_P2;PMS_P1;PMS_P2;Temp;Humidity;BMP_temperature;BMP_pressure;BME280_temperature;BME280_humidity;BME280_pressure;Samples;Min_cycle;Max_cycle;Signal;HPM_P1;HPM_P2
2023/09/02 00:02:22;;;;;;;17.50;15.43;;;;;;;18.36;78.71;93275.78;5070124;28;20188;-84
2023/09/02 00:04:48;;;;;;;16.27;14.97;;;;;;;18.47;78.28;93274.44;5067729;28;20192;-85
2023/09/02 00:07:13;;;;;;;17.93;16.03;;;;;;;18.30;78.45;93271.75;5067201;28;20221;-83
2023/09/02 00:09:38;;;;;;;17.80;16.27;;;;;;;18.28;78.88;93279.19;5069240;28;20202;-83
2023/09/02 00:12:04;;;;;;;17.13;15.63;;;;;;;18.17;78.48;93270.00;5067118;28;20219;-85
2023/09/02 00:14:29;;;;;;;17.77;16.27;;;;;;;18.08;79.16;93279.78;5066746;28;20257;-84
2023/09/02 00:16:55;;;;;;;16.47;15.17;;;;;;;18.02;79.83;93281.81;5070057;28;20233;-85
2023/09/02 00:19:22;;;;;;;16.13;14.77;;;;;;;18.08;79.48;93277.16;5070046;28;20254;-84
2023/09/02 00:21:47;;;;;;;16.17;14.77;;;;;;;18.07;79.15;93272.97;5069861;28;20233;-84
2023/09/02 00:24:13;;;;;;;16.50;15.10;;;;;;;17.98;79.47;93258.97;5070755;28;20213;-84
2023/09/02 00:26:38;;;;;;;16.40;15.03;;;;;;;17.93;79.44;93262.50;5069520;28;20240;-84
2023/09/02 00:29:03;;;;;;;16.27;14.83;;;;;;;17.95;79.94;93264.81;5065900;28;20194;-84
2023/09/02 00:31:29;;;;;;;15.97;14.57;;;;;;;17.89;79.70;93260.78;5066038;28;20210;-84
2023/09/02 00:33:54;;;;;;;17.43;15.83;;;;;;;17.88;79.80;93277.72;5069441;28;20237;-84
2023/09/02 00:36:20;;;;;;;15.80;14.43;;;;;;;17.84;79.76;93276.78;5069300;28;20239;-84
2023/09/02 00:38:45;;;;;;;16.50;15.23;;;;;;;17.84;80.11;93264.34;5069544;28;20205;-85
2023/09/02 00:41:25;;;;;;;17.07;15.67;;;;;;;17.75;80.32;93265.38;5068847;28;20226;-85
2023/09/02 00:43:51;;;;;;;16.43;14.97;;;;;;;17.82;80.66;93276.31;5069583;28;20182;-84
2023/09/02 00:46:16;;;;;;;16.40;14.87;;;;;;;17.84;80.48;93284.72;5069135;28;20239;-84
2023/09/02 00:48:41;;;;;;;16.07;14.73;;;;;;;17.76;80.53;93280.19;5068118;28;20201;-84
2023/09/02 00:51:08;;;;;;;15.57;14.27;;;;;;;17.73;80.56;93281.53;5068893;28;20218;-84
2023/09/02 00:53:33;;;;;;;16.03;14.67;;;;;;;17.64;80.91;93283.38;5068874;28;20209;-81
2023/09/02 00:56:00;;;;;;;16.73;15.43;;;;;;;17.58;80.93;93282.75;5067552;28;20229;-84
2023/09/02 00:58:25;;;;;;;16.30;15.00;;;;;;;17.53;81.15;93276.81;5056202;28;20217;-84
2023/09/02 01:00:52;;;;;;;16.37;14.97;;;;;;;17.53;81.33;93290.81;5068918;28;20222;-80
2023/09/02 01:03:18;;;;;;;15.93;14.63;;;;;;;17.43;80.99;93254.06;5068980;28;20214;-83
2023/09/02 01:05:43;;;;;;;16.70;15.27;;;;;;;17.55;81.38;93285.22;5069069;28;20224;-84
2023/09/02 01:08:08;;;;;;;16.57;15.17;;;;;;;17.35;81.72;93257.44;5067744;28;20258;-86
2023/09/02 01:10:37;;;;;;;15.47;14.10;;;;;;;17.39;82.21;93279.53;5068546;28;20260;-84
2023/09/02 01:13:03;;;;;;;16.37;14.97;;;;;;;17.47;81.71;93276.19;5067879;28;20217;-84
2023/09/02 01:15:32;;;;;;;16.37;14.97;;;;;;;17.33;81.80;93264.91;5068624;28;20233;-83
2023/09/02 01:17:57;;;;;;;16.43;14.93;;;;;;;17.28;82.47;93267.66;5069066;28;20186;-84
2023/09/02 01:20:26;;;;;;;16.50;15.30;;;;;;;17.25;82.90;93275.41;5067897;28;20233;-84
2023/09/02 01:23:22;;;;;;;18.23;16.73;;;;;;;17.28;82.74;93272.16;5067687;28;20224;-86
2023/09/02 01:26:16;;;;;;;16.87;15.33;;;;;;;17.27;82.70;93281.16;5056273;28;20304;-84
2023/09/02 01:28:45;;;;;;;16.13;14.80;;;;;;;17.21;82.54;93269.94;5048541;28;20227;-82
2023/09/02 01:31:13;;;;;;;16.33;14.93;;;;;;;17.27;82.29;93278.53;5059538;28;20217;-85
2023/09/02 01:33:40;;;;;;;17.10;15.70;;;;;;;17.24;82.71;93277.28;5063706;28;20209;-84
2023/09/02 01:36:07;;;;;;;16.97;15.63;;;;;;;17.26;82.50;93280.38;5068450;28;20229;-81
2023/09/02 01:38:33;;;;;;;16.10;14.70;;;;;;;17.23;82.83;93280.97;5068788;28;20183;-85
2023/09/02 01:41:01;;;;;;;15.90;14.40;;;;;;;17.25;82.80;93280.69;5059070;28;20241;-85
2023/09/02 01:43:29;;;;;;;17.17;15.77;;;;;;;17.13;83.20;93285.75;5067172;28;20755;-85
2023/09/02 01:45:56;;;;;;;16.27;14.87;;;;;;;17.25;83.29;93288.59;5068174;28;20246;-84
2023/09/02 01:48:23;;;;;;;18.17;16.53;;;;;;;17.13;83.34;93278.63;5068560;28;20194;-86
2023/09/02 01:50:52;;;;;;;17.70;16.10;;;;;;;17.15;83.44;93280.94;5071833;28;20233;-85
2023/09/02 01:53:17;;;;;;;16.87;15.53;;;;;;;17.16;83.59;93283.28;5072483;28;20209;-85
2023/09/02 01:55:44;;;;;;;17.63;15.93;;;;;;;17.20;83.34;93271.03;5072355;28;20237;-84
2023/09/02 01:58:10;;;;;;;17.47;15.87;;;;;;;17.27;83.34;93281.16;5061050;28;20194;-79
2023/09/02 02:00:36;;;;;;;18.00;16.50;;;;;;;17.16;83.80;93278.00;5071075;28;20228;-85
2023/09/02 02:03:02;;;;;;;16.87;15.57;;;;;;;17.17;84.00;93276.91;5072389;28;20193;-85
2023/09/02 02:05:35;;;;;;;17.40;15.90;;;;;;;17.17;84.23;93284.84;5057794;28;20232;-81
2023/09/02 02:08:09;;;;;;;17.93;16.43;;;;;;;17.03;84.64;93284.13;5071405;28;20190;-85
2023/09/02 02:10:38;;;;;;;18.37;16.77;;;;;;;16.99;84.79;93275.25;5059064;28;20214;-85
2023/09/02 02:13:03;;;;;;;16.80;15.40;;;;;;;17.11;84.51;93290.53;5071466;28;20290;-85
2023/09/02 02:15:29;;;;;;;17.07;15.57;;;;;;;17.08;84.37;93289.28;5072159;28;20288;-85
2023/09/02 02:17:54;;;;;;;17.37;15.87;;;;;;;17.06;84.46;93290.66;5072106;28;20246;-85
2023/09/02 02:20:21;;;;;;;16.80;15.40;;;;;;;17.05;84.30;93292.53;5072013;28;20249;-85
2023/09/02 02:22:46;;;;;;;17.37;15.63;;;;;;;16.90;84.95;93282.31;5070211;28;20241;-85
2023/09/02 02:25:12;;;;;;;17.00;15.30;;;;;;;17.04;84.60;93293.59;5071957;28;20239;-83
2023/09/02 02:27:37;;;;;;;17.13;15.67;;;;;;;17.00;84.84;93297.91;5071304;28;20200;-84
2023/09/02 02:30:03;;;;;;;17.10;15.60;;;;;;;17.00;84.64;93297.91;5070781;28;20189;-85
2023/09/02 02:32:29;;;;;;;18.30;16.43;;;;;;;17.01;84.69;93290.78;5062447;28;20270;-86
2023/09/02 02:34:54;;;;;;;16.70;15.17;;;;;;;16.93;85.26;93287.03;5071737;28;20184;-84
2023/09/02 02:37:20;;;;;;;19.27;17.27;;;;;;;16.97;86.41;93287.19;5071703;28;20252;-83
2023/09/02 02:39:45;;;;;;;22.03;17.07;;;;;;;17.03;86.93;93280.69;5072261;28;20253;-86
2023/09/02 02:42:11;;;;;;;17.13;15.40;;;;;;;16.95;86.15;93266.38;5071051;28;20222;-85
2023/09/02 02:44:36;;;;;;;17.07;15.47;;;;;;;16.88;86.02;93276.59;5065139;28;20181;-86
2023/09/02 02:47:02;;;;;;;16.00;14.53;;;;;;;16.85;86.19;93277.19;5065305;28;20220;-87
2023/09/02 02:49:27;;;;;;;17.87;16.27;;;;;;;16.67;86.98;93280.75;5072023;28;20253;-84
2023/09/02 02:51:56;;;;;;;17.30;15.73;;;;;;;16.70;87.17;93274.13;5071241;28;20234;-84
2023/09/02 02:54:21;;;;;;;16.67;15.17;;;;;;;16.82;87.46;93282.28;5072574;28;20185;-84
2023/09/02 02:56:46;;;;;;;14.73;13.60;;;;;;;16.78;86.38;93281.31;5071445;28;20225;-84
2023/09/02 02:59:12;;;;;;;15.43;13.93;;;;;;;16.62;87.64;93280.13;5071584;28;20186;-84
2023/09/02 03:01:37;;;;;;;16.27;14.97;;;;;;;16.49;87.77;93283.56;5070477;28;20233;-86
2023/09/02 03:04:03;;;;;;;15.67;14.13;;;;;;;16.58;87.23;93287.84;5071574;28;20194;-84
2023/09/02 03:06:28;;;;;;;15.20;13.87;;;;;;;16.46;87.99;93282.31;5071061;28;21017;-88
2023/09/02 03:08:53;;;;;;;16.27;14.57;;;;;;;16.54;87.28;93294.00;5060551;28;20200;-83
2023/09/02 03:11:19;;;;;;;16.37;14.80;;;;;;;16.43;87.84;93290.78;5059718;28;20245;-80
2023/09/02 03:13:44;;;;;;;14.90;13.70;;;;;;;16.61;87.57;93295.13;5060547;28;20216;-85
2023/09/02 03:16:10;;;;;;;14.83;13.53;;;;;;;16.61;86.86;93294.34;5066080;28;21033;-85
2023/09/02 03:18:35;;;;;;;15.93;14.63;;;;;;;16.49;87.37;93292.25;5059139;28;20225;-84
2023/09/02 03:21:05;;;;;;;15.60;14.33;;;;;;;16.46;88.83;93300.75;5070657;28;20224;-85
2023/09/02 03:23:33;;;;;;;16.17;14.60;;;;;;;16.51;87.75;93294.59;5061011;28;20182;-85
2023/09/02 03:26:18;;;;;;;16.00;14.53;;;;;;;16.40;88.20;93301.91;5070216;28;20237;-84
2023/09/02 03:28:43;;;;;;;16.03;14.67;;;;;;;16.46;88.23;93292.84;5063375;28;20191;-80
2023/09/02 03:31:10;;;;;;;17.40;15.83;;;;;;;16.45;88.42;93293.91;5060939;28;20245;-85
2023/09/02 03:33:36;;;;;;;15.80;14.50;;;;;;;16.52;87.99;93296.94;5070739;28;20252;-85
2023/09/02 03:36:03;;;;;;;17.03;15.43;;;;;;;16.51;88.47;93290.13;5071969;28;20668;-85
2023/09/02 03:38:29;;;;;;;16.70;15.20;;;;;;;16.39;88.27;93291.69;5080746;28;20244;-85
2023/09/02 03:40:55;;;;;;;15.83;14.53;;;;;;;16.44;88.50;93283.63;5072115;28;20229;-85
2023/09/02 03:43:20;;;;;;;17.10;15.57;;;;;;;16.41;88.58;93290.28;5079512;28;20252;-81
2023/09/02 03:45:49;;;;;;;16.73;15.07;;;;;;;16.39;89.42;93291.69;5069485;28;20280;-85
2023/09/02 03:48:19;;;;;;;16.63;15.23;;;;;;;16.50;88.29;93293.81;5069493;28;20185;-85
2023/09/02 03:51:05;;;;;;;16.47;15.03;;;;;;;16.49;88.42;93294.91;5069306;28;20233;-86
2023/09/02 03:53:31;;;;;;;17.17;15.53;;;;;;;16.50;88.34;93291.16;5071022;28;20208;-85
2023/09/02 03:55:58;;;;;;;15.63;14.33;;;;;;;16.44;88.44;93289.72;5069637;28;20217;-84
2023/09/02 03:58:23;;;;;;;17.27;15.27;;;;;;;16.44;88.45;93300.28;5069914;28;20189;-85
2023/09/02 04:00:49;;;;;;;15.80;14.50;;;;;;;16.61;87.68;93299.63;5069701;28;20213;-85
2023/09/02 04:03:15;;;;;;;16.10;14.80;;;;;;;16.51;87.77;93295.38;5070478;28;20205;-81
2023/09/02 04:05:41;;;;;;;15.83;14.40;;;;;;;16.57;87.75;93304.75;5069885;28;20229;-85
2023/09/02 04:08:06;;;;;;;16.20;14.80;;;;;;;16.57;87.60;93299.47;5069851;28;20189;-85
2023/09/02 04:10:32;;;;;;;16.10;14.43;;;;;;;16.56;87.27;93297.13;5069515;28;20236;-85
2023/09/02 04:12:57;;;;;;;15.33;14.13;;;;;;;16.63;87.16;93302.75;5067964;28;20221;-84
2023/09/02 04:15:22;;;;;;;14.93;13.63;;;;;;;16.86;86.42;93312.25;5068617;28;20233;-84
2023/09/02 04:17:48;;;;;;;14.93;13.67;;;;;;;16.78;86.65;93308.47;5069840;28;20188;-84
2023/09/02 04:20:13;;;;;;;13.90;12.80;;;;;;;16.74;86.29;93304.09;5081494;28;20244;-85
2023/09/02 04:22:39;;;;;;;15.80;14.23;;;;;;;16.79;86.18;93306.63;5067847;28;20181;-86
2023/09/02 04:25:05;;;;;;;15.50;13.97;;;;;;;16.89;85.98;93306.38;5070107;28;20315;-85
2023/09/02 04:27:30;;;;;;;14.90;13.80;;;;;;;16.57;86.03;93259.91;5076103;28;20231;-81
2023/09/02 04:29:56;;;;;;;16.13;14.43;;;;;;;17.05;86.12;93315.47;5069257;28;20185;-81
2023/09/02 04:32:21;;;;;;;15.67;14.27;;;;;;;17.08;85.97;93314.88;5057006;28;20208;-85
2023/09/02 04:34:46;;;;;;;13.37;12.20;;;;;;;17.12;86.41;93318.50;5056251;28;20194;-85
2023/09/02 04:37:12;;;;;;;13.90;12.67;;;;;;;17.12;87.70;93316.63;5068989;28;20324;-84
2023/09/02 04:39:40;;;;;;;14.43;13.13;;;;;;;17.26;86.84;93322.59;5069497;28;20204;-85
2023/09/02 04:42:06;;;;;;;14.60;13.27;;;;;;;17.24;87.41;93324.78;5055935;28;20229;-85
2023/09/02 04:44:31;;;;;;;14.17;12.97;;;;;;;17.18;88.64;93314.66;5066913;28;20186;-85
2023/09/02 04:46:56;;;;;;;15.93;13.10;;;;;;;17.39;86.56;93320.97;5069098;28;20248;-85
2023/09/02 04:49:22;;;;;;;13.37;12.27;;;;;;;17.10;87.94;93284.50;5069426;28;20186;-85
2023/09/02 04:51:48;;;;;;;13.93;12.83;;;;;;;17.48;88.02;93321.81;5067910;28;20225;-85
2023/09/02 04:54:14;;;;;;;14.77;13.50;;;;;;;17.58;87.07;93317.06;5066899;28;20205;-84
2023/09/02 04:56:39;;;;;;;12.97;11.87;;;;;;;17.77;86.27;93326.63;5069140;28;20285;-85
2023/09/02 04:59:05;;;;;;;14.27;13.10;;;;;;;17.82;86.00;93308.75;5069177;28;20182;-86
2023/09/02 05:01:31;;;;;;;15.23;14.00;;;;;;;17.99;84.76;93329.19;5068925;28;20225;-85
2023/09/02 05:03:56;;;;;;;14.50;13.40;;;;;;;18.13;83.45;93332.50;5068813;28;20212;-84
2023/09/02 05:06:21;;;;;;;15.90;14.60;;;;;;;18.23;82.59;93330.34;5069250;28;20227;-85
2023/09/02 05:08:53;;;;;;;15.73;14.33;;;;;;;18.40;81.89;93330.41;5068571;28;20213;-85
2023/09/02 05:11:19;;;;;;;16.33;14.93;;;;;;;18.78;78.68;93333.28;5067248;28;20219;-85
2023/09/02 05:13:44;;;;;;;16.13;14.73;;;;;;;18.63;79.49;93326.56;5066376;28;20288;-85
2023/09/02 05:16:10;;;;;;;18.00;16.37;;;;;;;18.68;78.97;93320.34;5068677;28;20230;-85
2023/09/02 05:18:35;;;;;;;18.93;17.23;;;;;;;18.53;80.79;93334.03;5067330;28;20208;-85
2023/09/02 05:21:01;;;;;;;18.60;16.80;;;;;;;18.72;80.12;93334.53;5068700;28;20229;-80
2023/09/02 05:23:26;;;;;;;20.47;17.67;;;;;;;18.84;79.30;93334.66;5080348;28;20243;-85
2023/09/02 05:25:56;;;;;;;20.00;18.10;;;;;;;18.95;78.35;93334.06;5071674;28;20233;-88
2023/09/02 05:28:25;;;;;;;20.10;18.10;;;;;;;18.88;78.77;93336.38;5072823;28;20249;-85
2023/09/02 05:30:51;;;;;;;21.43;19.40;;;;;;;18.37;81.77;93341.59;5071950;28;20229;-86
2023/09/02 05:33:17;;;;;;;21.30;19.13;;;;;;;18.26;82.53;93344.81;5073079;28;20260;-84
2023/09/02 05:35:43;;;;;;;24.73;20.00;;;;;;;18.30;82.44;93321.97;5072235;28;20232;-87
2023/09/02 05:38:09;;;;;;;22.90;20.50;;;;;;;18.53;82.30;93332.16;5065811;28;20202;-85
2023/09/02 05:40:35;;;;;;;22.50;20.17;;;;;;;18.72;81.46;93335.28;5064783;28;20255;-83
2023/09/02 05:43:01;;;;;;;23.60;19.80;;;;;;;19.00;79.27;93338.41;5072807;28;20273;-86
2023/09/02 05:45:26;;;;;;;22.07;19.50;;;;;;;19.00;79.05;93327.84;5072550;28;20290;-84
2023/09/02 05:47:51;;;;;;;21.43;18.43;;;;;;;19.05;78.67;93338.28;5073086;28;20195;-84
2023/09/02 05:50:17;;;;;;;22.30;20.00;;;;;;;19.05;78.16;93335.63;5071980;28;20227;-82
2023/09/02 05:52:42;;;;;;;22.43;20.17;;;;;;;18.77;79.36;93331.72;5073573;28;20260;-84
2023/09/02 05:55:08;;;;;;;20.53;18.53;;;;;;;19.12;77.90;93342.00;5072162;28;20196;-85
2023/09/02 05:57:33;;;;;;;20.57;18.47;;;;;;;20.16;74.03;93354.72;5072331;28;20204;-85
2023/09/02 05:59:59;;;;;;;20.60;18.67;;;;;;;22.16;65.32;93369.25;5070842;28;20210;-84
2023/09/02 06:02:24;;;;;;;22.13;19.33;;;;;;;21.44;66.98;93361.84;5072540;28;20199;-87
2023/09/02 06:04:50;;;;;;;20.73;18.77;;;;;;;20.59;70.31;93355.25;5072566;28;20191;-86
2023/09/02 06:07:15;;;;;;;21.97;19.77;;;;;;;19.95;73.51;93353.06;5072130;28;20225;-81
2023/09/02 06:09:42;;;;;;;21.97;19.83;;;;;;;20.05;72.81;93360.66;5072313;28;20192;-87
2023/09/02 06:12:07;;;;;;;20.70;18.60;;;;;;;19.99;73.59;93364.56;5071978;28;20226;-85
2023/09/02 06:14:33;;;;;;;22.57;19.60;;;;;;;19.87;74.30;93361.81;5072456;28;20187;-86
2023/09/02 06:16:58;;;;;;;25.37;21.07;;;;;;;19.62;75.96;93365.31;5072113;28;20219;-86
2023/09/02 06:19:24;;;;;;;21.93;19.77;;;;;;;19.95;74.39;93361.81;5072464;28;20187;-84
2023/09/02 06:21:49;;;;;;;23.77;19.33;;;;;;;20.30;73.11;93365.88;5072114;28;20230;-85
2023/09/02 06:24:14;;;;;;;24.40;20.33;;;;;;;20.16;72.97;93362.66;5069895;28;20170;-85
2023/09/02 06:26:40;;;;;;;23.33;19.70;;;;;;;19.83;74.41;93374.91;5070042;28;20234;-84
2023/09/02 06:29:05;;;;;;;20.23;18.27;;;;;;;20.41;71.66;93361.78;5069462;28;20505;-85
2023/09/02 06:31:30;;;;;;;21.10;18.47;;;;;;;20.33;72.33;93375.84;5070638;28;20222;-86
2023/09/02 06:33:56;;;;;;;21.13;18.87;;;;;;;20.10;72.62;93377.19;5071301;28;20221;-81
2023/09/02 06:36:21;;;;;;;22.53;20.20;;;;;;;20.62;71.00;93372.44;5070132;28;20321;-84
2023/09/02 06:38:47;;;;;;;19.57;17.67;;;;;;;20.74;70.06;93356.59;5071630;28;20200;-84
2023/09/02 06:41:14;;;;;;;20.52;18.33;;;;;;;20.87;69.31;93371.50;5070868;28;20228;-85
2023/09/02 06:43:40;;;;;;;21.85;19.63;;;;;;;20.83;69.93;93373.22;5071897;28;20207;-85
2023/09/02 06:46:10;;;;;;;20.63;18.43;;;;;;;21.03;69.29;93372.50;5068004;28;20247;-84
2023/09/02 06:48:35;;;;;;;23.27;19.50;;;;;;;21.08;68.50;93369.66;5071635;28;20198;-84
2023/09/02 06:51:00;;;;;;;21.20;19.08;;;;;;;20.73;70.04;93369.06;5082805;28;20228;-85
2023/09/02 06:53:26;;;;;;;20.57;18.37;;;;;;;20.49;71.65;93376.88;5069676;28;20227;-85
2023/09/02 06:55:51;;;;;;;19.58;17.75;;;;;;;21.17;69.00;93372.25;5070710;28;20226;-86
2023/09/02 06:58:16;;;;;;;19.50;17.58;;;;;;;21.39;68.86;93372.66;5071668;28;20218;-85
2023/09/02 07:00:42;;;;;;;18.17;16.25;;;;;;;21.81;67.02;93373.38;5070342;28;20217;-84
2023/09/02 07:03:07;;;;;;;21.65;17.73;;;;;;;21.90;66.21;93385.47;5069138;28;20201;-82
2023/09/02 07:05:32;;;;;;;19.40;17.50;;;;;;;21.27;68.56;93375.28;5070897;28;20229;-84
2023/09/02 07:07:59;;;;;;;23.10;17.52;;;;;;;21.30;68.35;93377.28;5069012;28;20189;-85
2023/09/02 07:10:24;;;;;;;18.73;16.85;;;;;;;21.48;67.36;93372.59;5066080;28;20251;-80
2023/09/02 07:12:52;;;;;;;18.70;16.90;;;;;;;21.89;65.36;93380.50;5070860;28;20263;-84
2023/09/02 07:15:17;;;;;;;19.95;17.02;;;;;;;21.82;66.67;93381.03;5070092;28;20236;-84
2023/09/02 07:17:43;;;;;;;18.02;16.25;;;;;;;22.04;64.34;93380.63;5070126;28;20692;-80
2023/09/02 07:20:09;;;;;;;20.40;18.20;;;;;;;21.69;65.71;93390.06;5070329;28;20173;-84
2023/09/02 07:22:34;;;;;;;20.25;18.23;;;;;;;21.97;64.53;93387.63;5078276;28;20180;-84
2023/09/02 07:25:00;;;;;;;19.00;16.90;;;;;;;21.78;64.86;93387.34;5065472;28;20669;-83
2023/09/02 07:27:26;;;;;;;20.35;18.35;;;;;;;22.19;64.12;93389.88;5063640;28;20186;-85
2023/09/02 07:29:51;;;;;;;18.30;16.67;;;;;;;21.78;65.69;93382.81;5070244;28;20210;-81
2023/09/02 07:32:16;;;;;;;18.52;16.67;;;;;;;21.64;65.46;93381.50;5059998;28;20803;-82
2023/09/02 07:34:42;;;;;;;16.55;14.95;;;;;;;21.96;64.22;93389.47;5068560;28;20180;-84
2023/09/02 07:37:07;;;;;;;18.25;16.42;;;;;;;22.27;62.96;93390.88;5070161;28;20218;-84
2023/09/02 07:39:33;;;;;;;16.95;15.35;;;;;;;22.47;61.40;93388.13;5069501;28;20185;-85
2023/09/02 07:41:58;;;;;;;17.38;15.88;;;;;;;22.44;62.15;93394.13;5069765;28;20251;-85
2023/09/02 07:44:23;;;;;;;16.85;15.15;;;;;;;22.51;62.32;93390.88;5070415;28;20220;-80
2023/09/02 07:46:50;;;;;;;14.85;13.68;;;;;;;22.60;60.82;93391.59;5068038;28;20228;-83
2023/09/02 07:49:16;;;;;;;16.42;15.02;;;;;;;22.67;60.39;93386.47;5073048;28;20201;-85
2023/09/02 07:51:43;;;;;;;15.73;14.30;;;;;;;22.88;59.39;93389.78;5076856;28;20225;-85
2023/09/02 07:54:09;;;;;;;16.35;14.90;;;;;;;22.68;60.17;93388.03;5069392;28;20267;-80
2023/09/02 07:56:34;;;;;;;15.02;13.73;;;;;;;22.93;58.30;93395.66;5068717;28;20221;-84
2023/09/02 07:58:59;;;;;;;14.82;13.52;;;;;;;23.06;59.12;93388.44;5069697;28;20182;-84
2023/09/02 08:01:25;;;;;;;15.68;14.13;;;;;;;23.27;57.94;93389.09;5068095;28;20229;-85
2023/09/02 08:03:50;;;;;;;14.60;13.40;;;;;;;23.41;56.92;93387.59;5069819;28;20186;-85
2023/09/02 08:06:16;;;;;;;15.98;14.50;;;;;;;23.10;58.56;93392.75;5069641;28;20223;-80
2023/09/02 08:08:41;;;;;;;17.63;15.98;;;;;;;23.10;58.72;93403.41;5069963;28;20188;-85
2023/09/02 08:11:07;;;;;;;17.00;15.45;;;;;;;23.20;58.29;93400.28;5070088;28;20215;-84
2023/09/02 08:13:33;;;;;;;16.73;15.23;;;;;;;23.12;58.80;93398.53;5069539;28;20272;-85
2023/09/02 08:16:02;;;;;;;16.00;14.52;;;;;;;23.38;56.18;93390.91;5069993;28;20223;-85
2023/09/02 08:18:28;;;;;;;14.55;13.20;;;;;;;23.45;57.28;93388.47;5068476;28;20203;-83
2023/09/02 08:20:53;;;;;;;14.70;13.27;;;;;;;23.43;56.59;93404.03;5067717;28;20228;-82
2023/09/02 08:23:18;;;;;;;15.02;13.63;;;;;;;23.34;57.30;93410.59;5066059;28;20185;-85
2023/09/02 08:25:44;;;;;;;15.13;13.65;;;;;;;23.60;57.33;93403.72;5070065;28;20229;-82
2023/09/02 08:28:09;;;;;;;13.35;12.35;;;;;;;23.78;55.34;93401.56;5069716;28;20195;-85
2023/09/02 08:30:38;;;;;;;15.50;14.13;;;;;;;23.60;55.58;93403.72;5069641;28;20227;-84
2023/09/02 08:33:04;;;;;;;14.77;13.48;;;;;;;23.36;55.85;93393.13;5069175;28;20207;-84
2023/09/02 08:35:34;;;;;;;15.13;13.88;;;;;;;23.68;56.59;93394.03;5069245;28;20317;-84
2023/09/02 08:37:59;;;;;;;17.77;13.15;;;;;;;24.05;55.58;93392.00;5073566;28;20223;-84
2023/09/02 08:40:25;;;;;;;13.02;12.02;;;;;;;24.28;54.08;93396.41;5065099;28;20262;-85
2023/09/02 08:42:50;;;;;;;13.35;12.25;;;;;;;24.28;52.80;93388.38;5074900;28;20179;-85
2023/09/02 08:45:22;;;;;;;13.23;12.32;;;;;;;23.94;53.82;93394.34;5061204;28;20222;-83
2023/09/02 08:47:53;;;;;;;13.15;11.95;;;;;;;24.32;53.01;93385.81;5080799;28;20196;-85
2023/09/02 08:50:20;;;;;;;14.27;13.05;;;;;;;24.19;53.56;93384.38;5068327;28;20233;-85
2023/09/02 08:52:46;;;;;;;15.02;13.25;;;;;;;24.06;53.71;93390.88;5068395;28;20291;-84
2023/09/02 08:55:14;;;;;;;13.77;12.52;;;;;;;24.20;54.42;93393.91;5068906;28;20228;-83
2023/09/02 08:57:39;;;;;;;14.57;11.95;;;;;;;24.57;52.72;93392.53;5067011;28;20198;-85
2023/09/02 09:00:06;;;;;;;12.55;11.50;;;;;;;24.54;51.61;93393.22;5069094;28;20222;-84
2023/09/02 09:02:33;;;;;;;12.45;11.35;;;;;;;24.53;52.32;93397.03;5068333;28;20219;-85
2023/09/02 09:05:02;;;;;;;13.60;12.60;;;;;;;24.31;53.30;93384.28;5068563;28;20187;-84
2023/09/02 09:07:29;;;;;;;14.38;13.02;;;;;;;23.92;54.46;93387.81;5068299;28;20230;-80
2023/09/02 09:09:58;;;;;;;13.75;12.57;;;;;;;23.97;54.25;93391.03;5068868;28;20181;-85
2023/09/02 09:12:25;;;;;;;13.07;12.10;;;;;;;24.04;53.63;93385.09;5068973;28;20211;-84
2023/09/02 09:14:54;;;;;;;13.68;12.45;;;;;;;24.12;53.57;93381.50;5068665;28;20186;-77
2023/09/02 09:17:20;;;;;;;13.27;12.00;;;;;;;24.12;53.48;93386.84;5068990;28;20189;-85
2023/09/02 09:19:46;;;;;;;12.93;11.93;;;;;;;23.56;54.49;93384.19;5068675;28;20187;-80
2023/09/02 09:22:11;;;;;;;12.43;11.43;;;;;;;23.58;54.11;93376.63;5066998;28;20223;-84
2023/09/02 09:24:37;;;;;;;15.00;13.25;;;;;;;23.92;54.26;93382.47;5069286;28;20302;-84
2023/09/02 09:27:06;;;;;;;12.98;11.88;;;;;;;24.03;53.84;93383.56;5068062;28;20219;-83
2023/09/02 09:29:41;;;;;;;13.10;12.10;;;;;;;24.18;53.57;93370.22;5078484;28;20204;-84
2023/09/02 09:32:14;;;;;;;13.23;12.13;;;;;;;23.75;54.38;93384.31;5058865;28;20220;-84
2023/09/02 09:34:41;;;;;;;13.65;12.63;;;;;;;23.93;54.71;93381.34;5067435;28;20193;-84
2023/09/02 09:37:08;;;;;;;16.58;12.02;;;;;;;23.98;54.46;93376.59;5067887;28;20223;-85
2023/09/02 09:39:40;;;;;;;13.50;12.40;;;;;;;23.99;56.43;93372.00;5079650;28;20195;-84
2023/09/02 09:42:06;;;;;;;13.45;12.35;;;;;;;23.70;54.13;93381.91;5067829;28;20242;-85
2023/09/02 09:44:31;;;;;;;12.52;11.63;;;;;;;24.29;52.64;93375.81;5068897;28;20184;-84
2023/09/02 09:46:57;;;;;;;12.10;11.15;;;;;;;24.04;53.12;93377.09;5067938;28;20228;-84
2023/09/02 09:49:30;;;;;;;13.48;12.15;;;;;;;23.77;54.93;93371.44;5068817;28;20223;-85
2023/09/02 09:52:01;;;;;;;13.13;12.13;;;;;;;23.63;54.85;93371.06;5061553;28;20219;-86
2023/09/02 09:54:45;;;;;;;12.02;11.23;;;;;;;24.27;52.77;93362.03;5060884;28;20188;-85
2023/09/02 09:57:14;;;;;;;13.30;12.20;;;;;;;24.70;52.09;93367.31;5066811;28;20232;-82
2023/09/02 09:59:50;;;;;;;12.95;11.82;;;;;;;24.73;51.64;93361.28;5076902;28;20209;-85
2023/09/02 10:02:17;;;;;;;13.57;12.35;;;;;;;24.47;52.54;93353.00;5070905;28;20210;-82
2023/09/02 10:04:49;;;;;;;13.48;12.48;;;;;;;24.99;52.40;93369.50;5068837;28;20193;-84
2023/09/02 10:07:20;;;;;;;12.82;11.60;;;;;;;24.73;52.19;93363.94;5068084;28;20230;-81
2023/09/02 10:09:45;;;;;;;12.77;11.77;;;;;;;25.20;51.83;93372.59;5068637;28;20201;-82
2023/09/02 10:12:16;;;;;;;12.07;11.02;;;;;;;25.51;50.69;93364.50;5070809;28;20236;-85
2023/09/02 10:14:46;;;;;;;12.10;11.05;;;;;;;25.66;48.84;93344.94;5072491;28;20243;-85
2023/09/02 10:17:13;;;;;;;11.20;10.38;;;;;;;25.98;47.31;93367.69;5070789;28;20224;-85
2023/09/02 10:19:40;;;;;;;12.40;11.32;;;;;;;25.50;48.75;93351.47;5078978;28;20208;-85
2023/09/02 10:22:06;;;;;;;11.48;10.50;;;;;;;25.60;48.09;93350.91;5070263;28;20692;-85
2023/09/02 10:24:41;;;;;;;11.95;10.93;;;;;;;25.23;48.50;93350.53;5072199;28;20222;-85
2023/09/02 10:27:16;;;;;;;11.55;10.65;;;;;;;25.24;48.82;93352.09;5079846;28;20229;-84
2023/09/02 10:29:46;;;;;;;11.05;10.15;;;;;;;25.64;46.98;93346.41;5057510;28;20193;-84
2023/09/02 10:32:12;;;;;;;11.20;10.40;;;;;;;25.58;46.61;93345.13;5060836;28;20233;-84
2023/09/02 10:34:51;;;;;;;11.85;11.00;;;;;;;25.64;46.96;93349.84;5070381;28;20195;-85
2023/09/02 10:37:20;;;;;;;11.23;10.43;;;;;;;25.71;45.09;93352.69;5071198;28;20374;-85
2023/09/02 10:40:01;;;;;;;14.23;10.75;;;;;;;25.96;44.99;93342.41;5070433;28;20626;-85
2023/09/02 10:42:28;;;;;;;12.25;11.25;;;;;;;26.18;44.07;93339.00;5070377;28;20231;-84
2023/09/02 10:44:53;;;;;;;11.80;10.80;;;;;;;26.34;44.23;93356.50;5071543;28;20184;-82
2023/09/02 10:47:19;;;;;;;12.23;11.32;;;;;;;26.55;44.59;93354.13;5071798;28;20387;-83
2023/09/02 10:49:45;;;;;;;12.23;11.10;;;;;;;25.70;44.99;93343.09;5071162;28;20185;-84
2023/09/02 10:52:14;;;;;;;12.20;11.27;;;;;;;26.13;44.63;93341.97;5068789;28;20225;-82
2023/09/02 10:55:02;;;;;;;11.77;10.85;;;;;;;26.42;41.63;93357.38;5071441;28;20177;-85
2023/09/02 10:57:29;;;;;;;12.13;11.32;;;;;;;26.47;43.22;93355.19;5058383;28;20238;-85
2023/09/02 11:00:14;;;;;;;11.57;10.70;;;;;;;26.61;41.24;93357.31;5071323;28;20194;-83
2023/09/02 11:02:41;;;;;;;11.88;10.88;;;;;;;26.25;42.13;93350.59;5071550;28;20191;-83
2023/09/02 11:05:07;;;;;;;12.55;11.63;;;;;;;26.01;42.83;93350.19;5070818;28;20215;-84
2023/09/02 11:07:34;;;;;;;11.85;10.93;;;;;;;26.06;43.49;93347.97;5071874;28;20192;-84
2023/09/02 11:10:00;;;;;;;12.77;11.77;;;;;;;26.36;41.69;93343.53;5070395;28;20223;-85
2023/09/02 11:12:27;;;;;;;12.85;11.85;;;;;;;26.07;41.17;93341.50;5070592;28;20205;-84
2023/09/02 11:15:07;;;;;;;10.82;10.02;;;;;;;26.22;40.63;93340.63;5070782;28;20185;-80
2023/09/02 11:17:37;;;;;;;11.68;10.77;;;;;;;26.31;40.36;93343.81;5071068;28;20207;-82